sensor_id;sensor_type;location;lat;lon;timestamp;pressure;altitude;pressure_sealevel;temperature;humidity
34065;BME280;20339;49.754;20.158;2023-03-23T00:02:33;96295.15;;;9.57;69.71
34065;BME280;20339;49.754;20.158;2023-03-23T00:05:08;96300.45;;;9.54;69.79
34065;BME280;20339;49.754;20.158;2023-03-23T00:07:40;96296.80;;;9.55;69.80
34065;BME280;20339;49.754;20.158;2023-03-23T00:10:16;96292.73;;;9.54;69.86
34065;BME280;20339;49.754;20.158;2023-03-23T00:12:57;96295.63;;;9.55;69.78
34065;BME280;20339;49.754;20.158;2023-03-23T00:15:33;96298.27;;;9.54;69.73
34065;BME280;20339;49.754;20.158;2023-03-23T00:18:09;96300.75;;;9.56;69.90
34065;BME280;20339;49.754;20.158;2023-03-23T00:20:55;96294.67;;;9.58;69.80
34065;BME280;20339;49.754;20.158;2023-03-23T00:23:31;96291.92;;;9.59;69.78
34065;BME280;20339;49.754;20.158;2023-03-23T00:26:05;96288.15;;;9.59;69.77
34065;BME280;20339;49.754;20.158;2023-03-23T00:28:41;96293.14;;;9.58;69.84
34065;BME280;20339;49.754;20.158;2023-03-23T00:31:14;96295.38;;;9.53;69.81
34065;BME280;20339;49.754;20.158;2023-03-23T00:33:55;96291.16;;;9.52;69.88
34065;BME280;20339;49.754;20.158;2023-03-23T00:36:36;96294.41;;;9.51;69.91
34065;BME280;20339;49.754;20.158;2023-03-23T00:39:19;96290.89;;;9.48;69.98
34065;BME280;20339;49.754;20.158;2023-03-23T00:41:58;96288.11;;;9.46;70.11
34065;BME280;20339;49.754;20.158;2023-03-23T00:44:44;96284.20;;;9.45;70.16
34065;BME280;20339;49.754;20.158;2023-03-23T00:47:17;96274.10;;;9.44;70.33
34065;BME280;20339;49.754;20.158;2023-03-23T00:50:02;96272.16;;;9.44;70.32
34065;BME280;20339;49.754;20.158;2023-03-23T00:52:36;96261.83;;;9.42;70.41
34065;BME280;20339;49.754;20.158;2023-03-23T00:55:19;96262.95;;;9.41;70.40
34065;BME280;20339;49.754;20.158;2023-03-23T00:57:52;96263.89;;;9.42;70.53
34065;BME280;20339;49.754;20.158;2023-03-23T01:00:29;96261.50;;;9.45;70.58
34065;BME280;20339;49.754;20.158;2023-03-23T01:03:02;96256.89;;;9.46;70.59
34065;BME280;20339;49.754;20.158;2023-03-23T01:05:39;96256.57;;;9.46;70.50
34065;BME280;20339;49.754;20.158;2023-03-23T01:08:10;96252.65;;;9.46;70.56
34065;BME280;20339;49.754;20.158;2023-03-23T01:10:42;96248.84;;;9.47;70.59
34065;BME280;20339;49.754;20.158;2023-03-23T01:13:18;96250.11;;;9.52;70.59
34065;BME280;20339;49.754;20.158;2023-03-23T01:15:57;96248.41;;;9.57;70.51
34065;BME280;20339;49.754;20.158;2023-03-23T01:18:35;96245.80;;;9.60;70.27
34065;BME280;20339;49.754;20.158;2023-03-23T01:21:09;96238.77;;;9.59;70.25
34065;BME280;20339;49.754;20.158;2023-03-23T01:23:46;96242.07;;;9.57;70.28
34065;BME280;20339;49.754;20.158;2023-03-23T01:26:19;96246.71;;;9.59;70.23
34065;BME280;20339;49.754;20.158;2023-03-23T01:28:57;96246.06;;;9.60;70.23
34065;BME280;20339;49.754;20.158;2023-03-23T01:31:32;96242.89;;;9.59;70.11
34065;BME280;20339;49.754;20.158;2023-03-23T01:34:08;96243.65;;;9.58;70.24
34065;BME280;20339;49.754;20.158;2023-03-23T01:36:56;96243.48;;;9.58;70.26
34065;BME280;20339;49.754;20.158;2023-03-23T01:39:33;96241.33;;;9.58;70.19
34065;BME280;20339;49.754;20.158;2023-03-23T01:42:13;96241.01;;;9.57;70.31
34065;BME280;20339;49.754;20.158;2023-03-23T01:48:12;96246.77;;;9.56;70.34
34065;BME280;20339;49.754;20.158;2023-03-23T01:50:57;96245.49;;;9.57;70.35
34065;BME280;20339;49.754;20.158;2023-03-23T01:53:37;96240.48;;;9.58;70.25
34065;BME280;20339;49.754;20.158;2023-03-23T01:56:18;96239.98;;;9.60;70.32
34065;BME280;20339;49.754;20.158;2023-03-23T01:59:03;96236.64;;;9.60;70.32
34065;BME280;20339;49.754;20.158;2023-03-23T02:01:39;96238.50;;;9.59;70.32
34065;BME280;20339;49.754;20.158;2023-03-23T02:04:23;96238.28;;;9.60;70.31
34065;BME280;20339;49.754;20.158;2023-03-23T02:07:00;96234.36;;;9.60;70.25
34065;BME280;20339;49.754;20.158;2023-03-23T02:09:37;96231.32;;;9.58;70.37
34065;BME280;20339;49.754;20.158;2023-03-23T02:12:16;96236.14;;;9.56;70.36
34065;BME280;20339;49.754;20.158;2023-03-23T02:15:01;96228.69;;;9.55;70.49
34065;BME280;20339;49.754;20.158;2023-03-23T02:17:54;96233.55;;;9.57;70.55
34065;BME280;20339;49.754;20.158;2023-03-23T02:26:59;96243.84;;;9.60;70.30
34065;BME280;20339;49.754;20.158;2023-03-23T02:30:01;96232.84;;;9.59;70.30
34065;BME280;20339;49.754;20.158;2023-03-23T02:32:56;96236.39;;;9.57;70.33
34065;BME280;20339;49.754;20.158;2023-03-23T02:35:43;96238.49;;;9.53;70.33
34065;BME280;20339;49.754;20.158;2023-03-23T02:38:21;96238.14;;;9.52;70.40
34065;BME280;20339;49.754;20.158;2023-03-23T02:41:00;96235.54;;;9.53;70.52
34065;BME280;20339;49.754;20.158;2023-03-23T02:43:44;96239.27;;;9.54;70.52
34065;BME280;20339;49.754;20.158;2023-03-23T02:46:24;96238.08;;;9.52;70.56
34065;BME280;20339;49.754;20.158;2023-03-23T02:49:00;96240.52;;;9.53;70.53
34065;BME280;20339;49.754;20.158;2023-03-23T02:51:41;96240.17;;;9.50;70.55
34065;BME280;20339;49.754;20.158;2023-03-23T02:54:18;96240.86;;;9.50;70.60
34065;BME280;20339;49.754;20.158;2023-03-23T02:56:56;96240.29;;;9.49;70.57
34065;BME280;20339;49.754;20.158;2023-03-23T02:59:31;96240.00;;;9.47;70.66
34065;BME280;20339;49.754;20.158;2023-03-23T03:02:09;96244.83;;;9.46;70.62
34065;BME280;20339;49.754;20.158;2023-03-23T03:04:48;96242.52;;;9.45;70.64
34065;BME280;20339;49.754;20.158;2023-03-23T03:07:48;96238.48;;;9.43;70.75
34065;BME280;20339;49.754;20.158;2023-03-23T03:10:27;96236.27;;;9.42;70.80
34065;BME280;20339;49.754;20.158;2023-03-23T03:13:08;96236.38;;;9.41;70.79
34065;BME280;20339;49.754;20.158;2023-03-23T03:15:45;96234.37;;;9.41;70.81
34065;BME280;20339;49.754;20.158;2023-03-23T03:18:26;96241.41;;;9.41;70.80
34065;BME280;20339;49.754;20.158;2023-03-23T03:21:11;96236.80;;;9.43;70.89
34065;BME280;20339;49.754;20.158;2023-03-23T03:23:50;96238.84;;;9.46;70.89
34065;BME280;20339;49.754;20.158;2023-03-23T03:26:34;96234.95;;;9.52;70.78
34065;BME280;20339;49.754;20.158;2023-03-23T03:29:09;96235.14;;;9.55;70.55
34065;BME280;20339;49.754;20.158;2023-03-23T03:31:47;96229.95;;;9.56;70.49
34065;BME280;20339;49.754;20.158;2023-03-23T03:34:25;96229.27;;;9.53;70.53
34065;BME280;20339;49.754;20.158;2023-03-23T03:37:03;96226.83;;;9.50;70.51
34065;BME280;20339;49.754;20.158;2023-03-23T03:39:37;96228.27;;;9.50;70.66
34065;BME280;20339;49.754;20.158;2023-03-23T03:42:15;96228.23;;;9.53;70.64
34065;BME280;20339;49.754;20.158;2023-03-23T03:44:53;96226.72;;;9.55;70.50
34065;BME280;20339;49.754;20.158;2023-03-23T03:47:34;96230.73;;;9.51;70.50
34065;BME280;20339;49.754;20.158;2023-03-23T03:50:10;96228.73;;;9.50;70.66
34065;BME280;20339;49.754;20.158;2023-03-23T03:52:42;96226.73;;;9.49;70.63
34065;BME280;20339;49.754;20.158;2023-03-23T03:55:18;96224.97;;;9.47;70.64
34065;BME280;20339;49.754;20.158;2023-03-23T03:57:50;96225.14;;;9.45;70.56
34065;BME280;20339;49.754;20.158;2023-03-23T04:00:21;96229.14;;;9.48;70.52
34065;BME280;20339;49.754;20.158;2023-03-23T04:02:53;96233.35;;;9.44;70.51
34065;BME280;20339;49.754;20.158;2023-03-23T04:05:24;96225.17;;;9.47;70.50
34065;BME280;20339;49.754;20.158;2023-03-23T04:07:58;96225.25;;;9.60;70.34
34065;BME280;20339;49.754;20.158;2023-03-23T04:10:33;96227.22;;;9.68;69.96
34065;BME280;20339;49.754;20.158;2023-03-23T04:13:10;96217.23;;;9.73;69.68
34065;BME280;20339;49.754;20.158;2023-03-23T04:15:47;96218.60;;;9.78;69.38
34065;BME280;20339;49.754;20.158;2023-03-23T04:18:35;96229.23;;;9.82;69.19
34065;BME280;20339;49.754;20.158;2023-03-23T04:21:08;96232.73;;;9.82;69.00
34065;BME280;20339;49.754;20.158;2023-03-23T04:23:40;96233.23;;;9.86;68.89
34065;BME280;20339;49.754;20.158;2023-03-23T04:26:27;96222.61;;;9.83;68.90
34065;BME280;20339;49.754;20.158;2023-03-23T04:29:06;96231.13;;;9.83;68.73
34065;BME280;20339;49.754;20.158;2023-03-23T04:31:39;96229.61;;;9.82;68.78
34065;BME280;20339;49.754;20.158;2023-03-23T04:34:17;96227.88;;;9.77;68.78
34065;BME280;20339;49.754;20.158;2023-03-23T04:36:51;96227.57;;;9.73;68.89
34065;BME280;20339;49.754;20.158;2023-03-23T04:39:33;96230.96;;;9.71;69.02
34065;BME280;20339;49.754;20.158;2023-03-23T04:42:07;96230.19;;;9.68;69.10
34065;BME280;20339;49.754;20.158;2023-03-23T04:44:44;96227.89;;;9.66;69.04
34065;BME280;20339;49.754;20.158;2023-03-23T04:47:25;96224.54;;;9.67;69.12
34065;BME280;20339;49.754;20.158;2023-03-23T04:50:03;96232.05;;;9.67;69.05
34065;BME280;20339;49.754;20.158;2023-03-23T04:52:42;96233.34;;;9.70;69.08
34065;BME280;20339;49.754;20.158;2023-03-23T04:55:18;96233.87;;;9.76;69.13
34065;BME280;20339;49.754;20.158;2023-03-23T04:57:50;96234.05;;;9.82;68.99
34065;BME280;20339;49.754;20.158;2023-03-23T05:00:22;96234.81;;;9.81;68.90
34065;BME280;20339;49.754;20.158;2023-03-23T05:02:53;96235.95;;;9.83;68.90
34065;BME280;20339;49.754;20.158;2023-03-23T05:05:33;96234.77;;;9.84;68.82
34065;BME280;20339;49.754;20.158;2023-03-23T05:08:06;96238.41;;;9.86;68.80
34065;BME280;20339;49.754;20.158;2023-03-23T05:10:37;96230.88;;;9.96;68.71
34065;BME280;20339;49.754;20.158;2023-03-23T05:13:09;96236.77;;;10.18;68.58
34065;BME280;20339;49.754;20.158;2023-03-23T05:15:43;96230.68;;;10.54;67.82
34065;BME280;20339;49.754;20.158;2023-03-23T05:18:14;96228.18;;;10.87;66.98
34065;BME280;20339;49.754;20.158;2023-03-23T05:20:55;96228.05;;;11.06;66.33
34065;BME280;20339;49.754;20.158;2023-03-23T05:23:34;96235.60;;;11.25;65.68
34065;BME280;20339;49.754;20.158;2023-03-23T05:26:06;96231.41;;;11.12;65.14
34065;BME280;20339;49.754;20.158;2023-03-23T05:28:41;96237.63;;;10.91;65.00
34065;BME280;20339;49.754;20.158;2023-03-23T05:31:12;96227.88;;;10.77;65.22
34065;BME280;20339;49.754;20.158;2023-03-23T05:33:46;96225.73;;;10.72;65.52
34065;BME280;20339;49.754;20.158;2023-03-23T05:36:26;96229.26;;;10.73;65.67
34065;BME280;20339;49.754;20.158;2023-03-23T05:38:58;96238.77;;;10.83;65.62
34065;BME280;20339;49.754;20.158;2023-03-23T05:41:37;96233.83;;;11.10;65.12
34065;BME280;20339;49.754;20.158;2023-03-23T05:44:17;96224.08;;;11.43;64.46
34065;BME280;20339;49.754;20.158;2023-03-23T05:46:49;96224.50;;;11.64;63.70
34065;BME280;20339;49.754;20.158;2023-03-23T05:49:22;96225.58;;;11.66;63.52
34065;BME280;20339;49.754;20.158;2023-03-23T05:51:59;96230.70;;;11.86;63.15
34065;BME280;20339;49.754;20.158;2023-03-23T05:54:41;96233.61;;;12.27;62.68
34065;BME280;20339;49.754;20.158;2023-03-23T05:57:23;96230.70;;;12.75;62.15
34065;BME280;20339;49.754;20.158;2023-03-23T06:00:02;96236.97;;;13.22;61.20
34065;BME280;20339;49.754;20.158;2023-03-23T06:02:44;96236.80;;;13.67;60.13
34065;BME280;20339;49.754;20.158;2023-03-23T06:05:25;96234.17;;;13.93;58.69
34065;BME280;20339;49.754;20.158;2023-03-23T06:08:12;96223.15;;;13.99;58.09
34065;BME280;20339;49.754;20.158;2023-03-23T06:10:46;96224.16;;;14.01;57.32
34065;BME280;20339;49.754;20.158;2023-03-23T06:13:22;96225.64;;;14.22;57.07
34065;BME280;20339;49.754;20.158;2023-03-23T06:15:58;96217.77;;;14.40;56.64
34065;BME280;20339;49.754;20.158;2023-03-23T06:18:31;96212.48;;;14.66;56.16
34065;BME280;20339;49.754;20.158;2023-03-23T06:21:07;96222.47;;;15.15;55.36
34065;BME280;20339;49.754;20.158;2023-03-23T06:23:41;96224.56;;;15.49;53.53
34065;BME280;20339;49.754;20.158;2023-03-23T06:26:19;96221.66;;;15.58;53.41
34065;BME280;20339;49.754;20.158;2023-03-23T06:28:55;96227.13;;;15.75;52.48
34065;BME280;20339;49.754;20.158;2023-03-23T06:31:46;96224.34;;;16.30;52.13
34065;BME280;20339;49.754;20.158;2023-03-23T06:34:21;96227.50;;;17.01;50.67
34065;BME280;20339;49.754;20.158;2023-03-23T06:37:00;96226.54;;;17.32;49.56
34065;BME280;20339;49.754;20.158;2023-03-23T06:39:38;96223.86;;;17.55;48.86
34065;BME280;20339;49.754;20.158;2023-03-23T06:42:12;96229.31;;;17.72;47.81
34065;BME280;20339;49.754;20.158;2023-03-23T06:45:03;96235.55;;;17.73;47.44
34065;BME280;20339;49.754;20.158;2023-03-23T06:47:44;96235.42;;;17.79;47.59
34065;BME280;20339;49.754;20.158;2023-03-23T06:50:24;96243.09;;;17.87;46.77
34065;BME280;20339;49.754;20.158;2023-03-23T06:52:59;96245.27;;;17.87;46.37
34065;BME280;20339;49.754;20.158;2023-03-23T06:55:31;96247.08;;;17.75;46.47
34065;BME280;20339;49.754;20.158;2023-03-23T06:58:02;96239.83;;;17.29;46.49
34065;BME280;20339;49.754;20.158;2023-03-23T07:00:39;96239.05;;;17.29;46.77
34065;BME280;20339;49.754;20.158;2023-03-23T07:03:11;96238.52;;;17.29;46.73
34065;BME280;20339;49.754;20.158;2023-03-23T07:05:47;96240.45;;;18.07;46.71
34065;BME280;20339;49.754;20.158;2023-03-23T07:08:31;96236.64;;;19.24;45.73
34065;BME280;20339;49.754;20.158;2023-03-23T07:11:02;96230.02;;;19.88;44.16
34065;BME280;20339;49.754;20.158;2023-03-23T07:13:35;96228.79;;;20.46;42.84
34065;BME280;20339;49.754;20.158;2023-03-23T07:16:08;96226.88;;;20.78;42.03
34065;BME280;20339;49.754;20.158;2023-03-23T07:18:40;96223.15;;;21.50;43.05
34065;BME280;20339;49.754;20.158;2023-03-23T07:21:16;96224.88;;;22.33;41.28
34065;BME280;20339;49.754;20.158;2023-03-23T07:23:53;96218.34;;;22.51;40.25
34065;BME280;20339;49.754;20.158;2023-03-23T07:26:30;96220.32;;;22.23;39.83
34065;BME280;20339;49.754;20.158;2023-03-23T07:29:11;96224.80;;;22.01;39.70
34065;BME280;20339;49.754;20.158;2023-03-23T07:31:44;96223.66;;;21.61;38.70
34065;BME280;20339;49.754;20.158;2023-03-23T07:34:15;96227.55;;;20.99;39.36
34065;BME280;20339;49.754;20.158;2023-03-23T07:36:47;96236.16;;;21.02;39.63
34065;BME280;20339;49.754;20.158;2023-03-23T07:39:23;96232.66;;;20.71;39.71
34065;BME280;20339;49.754;20.158;2023-03-23T07:41:55;96235.51;;;20.43;40.11
34065;BME280;20339;49.754;20.158;2023-03-23T07:44:36;96229.42;;;19.76;40.67
34065;BME280;20339;49.754;20.158;2023-03-23T07:47:13;96231.66;;;18.96;40.84
34065;BME280;20339;49.754;20.158;2023-03-23T07:49:44;96236.54;;;18.04;42.29
34065;BME280;20339;49.754;20.158;2023-03-23T07:52:16;96231.75;;;17.32;43.51
34065;BME280;20339;49.754;20.158;2023-03-23T07:54:52;96230.92;;;16.79;44.59
34065;BME280;20339;49.754;20.158;2023-03-23T07:57:24;96223.82;;;16.43;45.44
34065;BME280;20339;49.754;20.158;2023-03-23T08:00:05;96222.10;;;16.10;46.19
34065;BME280;20339;49.754;20.158;2023-03-23T08:02:44;96221.79;;;16.08;46.74
34065;BME280;20339;49.754;20.158;2023-03-23T08:05:20;96228.20;;;16.03;46.70
34065;BME280;20339;49.754;20.158;2023-03-23T08:07:56;96227.13;;;15.68;47.02
34065;BME280;20339;49.754;20.158;2023-03-23T08:10:31;96216.61;;;15.26;48.01
34065;BME280;20339;49.754;20.158;2023-03-23T08:13:03;96219.19;;;15.01;48.79
34065;BME280;20339;49.754;20.158;2023-03-23T08:15:39;96216.06;;;14.83;49.14
34065;BME280;20339;49.754;20.158;2023-03-23T08:18:11;96212.79;;;14.75;49.56
34065;BME280;20339;49.754;20.158;2023-03-23T08:20:44;96216.86;;;14.83;49.89
34065;BME280;20339;49.754;20.158;2023-03-23T08:23:17;96216.57;;;15.06;50.00
34065;BME280;20339;49.754;20.158;2023-03-23T08:25:52;96219.27;;;15.33;50.08
34065;BME280;20339;49.754;20.158;2023-03-23T08:28:34;96226.23;;;15.34;49.47
34065;BME280;20339;49.754;20.158;2023-03-23T08:31:12;96225.20;;;15.49;49.74
34065;BME280;20339;49.754;20.158;2023-03-23T08:33:47;96227.27;;;15.96;49.43
34065;BME280;20339;49.754;20.158;2023-03-23T08:36:22;96228.58;;;16.21;48.84
34065;BME280;20339;49.754;20.158;2023-03-23T08:38:56;96232.54;;;16.33;48.46
34065;BME280;20339;49.754;20.158;2023-03-23T08:41:29;96233.33;;;16.97;47.98
34065;BME280;20339;49.754;20.158;2023-03-23T08:44:06;96238.34;;;17.43;46.82
34065;BME280;20339;49.754;20.158;2023-03-23T08:46:42;96231.15;;;18.16;46.32
34065;BME280;20339;49.754;20.158;2023-03-23T08:49:13;96226.61;;;19.33;46.16
34065;BME280;20339;49.754;20.158;2023-03-23T08:51:44;96225.34;;;20.61;44.25
34065;BME280;20339;49.754;20.158;2023-03-23T08:54:18;96220.57;;;21.23;42.18
34065;BME280;20339;49.754;20.158;2023-03-23T08:56:52;96214.52;;;20.94;41.27
34065;BME280;20339;49.754;20.158;2023-03-23T08:59:28;96206.98;;;20.15;39.89
34065;BME280;20339;49.754;20.158;2023-03-23T09:01:59;96212.83;;;18.83;40.00
34065;BME280;20339;49.754;20.158;2023-03-23T09:04:30;96225.71;;;17.69;41.30
34065;BME280;20339;49.754;20.158;2023-03-23T09:07:02;96221.36;;;17.00;42.23
34065;BME280;20339;49.754;20.158;2023-03-23T09:09:33;96223.87;;;16.36;43.03
34065;BME280;20339;49.754;20.158;2023-03-23T09:12:07;96227.77;;;16.02;44.28
34065;BME280;20339;49.754;20.158;2023-03-23T09:14:40;96226.50;;;15.97;44.66
34065;BME280;20339;49.754;20.158;2023-03-23T09:17:13;96229.14;;;15.91;44.95
34065;BME280;20339;49.754;20.158;2023-03-23T09:19:44;96228.51;;;15.88;45.18
34065;BME280;20339;49.754;20.158;2023-03-23T09:22:19;96233.45;;;15.88;45.48
34065;BME280;20339;49.754;20.158;2023-03-23T09:24:53;96229.70;;;15.86;45.65
34065;BME280;20339;49.754;20.158;2023-03-23T09:27:27;96229.61;;;15.80;45.65
34065;BME280;20339;49.754;20.158;2023-03-23T09:29:58;96231.71;;;15.73;46.29
34065;BME280;20339;49.754;20.158;2023-03-23T09:32:31;96225.42;;;15.72;46.18
34065;BME280;20339;49.754;20.158;2023-03-23T09:35:04;96230.52;;;15.77;46.50
34065;BME280;20339;49.754;20.158;2023-03-23T09:37:37;96225.67;;;15.75;46.07
34065;BME280;20339;49.754;20.158;2023-03-23T09:40:13;96228.73;;;15.71;45.71
34065;BME280;20339;49.754;20.158;2023-03-23T09:42:56;96228.09;;;15.73;45.98
34065;BME280;20339;49.754;20.158;2023-03-23T09:45:37;96213.29;;;15.72;46.05
34065;BME280;20339;49.754;20.158;2023-03-23T09:48:26;96223.38;;;15.69;46.08
34065;BME280;20339;49.754;20.158;2023-03-23T09:51:03;96218.52;;;15.66;45.29
34065;BME280;20339;49.754;20.158;2023-03-23T09:53:38;96224.18;;;15.70;45.49
34065;BME280;20339;49.754;20.158;2023-03-23T09:56:14;96217.08;;;15.85;45.21
34065;BME280;20339;49.754;20.158;2023-03-23T09:58:51;96209.52;;;15.89;44.98
34065;BME280;20339;49.754;20.158;2023-03-23T10:01:27;96202.09;;;15.92;45.04
34065;BME280;20339;49.754;20.158;2023-03-23T10:04:12;96203.91;;;15.88;44.76
34065;BME280;20339;49.754;20.158;2023-03-23T10:06:57;96212.33;;;15.94;46.00
34065;BME280;20339;49.754;20.158;2023-03-23T10:09:32;96211.40;;;16.16;46.53
34065;BME280;20339;49.754;20.158;2023-03-23T10:12:13;96207.32;;;16.39;45.86
34065;BME280;20339;49.754;20.158;2023-03-23T10:15:08;96204.59;;;16.74;45.94
34065;BME280;20339;49.754;20.158;2023-03-23T10:17:54;96203.76;;;17.11;45.55
34065;BME280;20339;49.754;20.158;2023-03-23T10:20:43;96207.98;;;17.38;45.15
34065;BME280;20339;49.754;20.158;2023-03-23T10:26:37;96196.87;;;17.93;44.03
34065;BME280;20339;49.754;20.158;2023-03-23T10:29:30;96189.64;;;17.82;43.19
34065;BME280;20339;49.754;20.158;2023-03-23T10:32:09;96168.29;;;17.60;40.83
34065;BME280;20339;49.754;20.158;2023-03-23T10:34:47;96183.19;;;17.38;41.15
34065;BME280;20339;49.754;20.158;2023-03-23T10:37:29;96175.70;;;17.48;41.49
34065;BME280;20339;49.754;20.158;2023-03-23T10:40:14;96181.60;;;17.62;41.83
34065;BME280;20339;49.754;20.158;2023-03-23T10:42:49;96184.20;;;17.73;41.42
34065;BME280;20339;49.754;20.158;2023-03-23T10:45:32;96174.87;;;17.66;39.88
34065;BME280;20339;49.754;20.158;2023-03-23T10:48:14;96181.83;;;17.39;40.18
34065;BME280;20339;49.754;20.158;2023-03-23T10:51:03;96190.27;;;17.39;41.47
34065;BME280;20339;49.754;20.158;2023-03-23T10:53:42;96173.73;;;17.65;40.50
34065;BME280;20339;49.754;20.158;2023-03-23T10:56:24;96169.36;;;17.56;40.12
34065;BME280;20339;49.754;20.158;2023-03-23T10:59:10;96180.87;;;17.56;40.23
34065;BME280;20339;49.754;20.158;2023-03-23T11:01:47;96166.96;;;17.68;41.22
34065;BME280;20339;49.754;20.158;2023-03-23T11:04:23;96164.30;;;17.93;41.55
34065;BME280;20339;49.754;20.158;2023-03-23T11:07:02;96165.89;;;18.10;39.69
34065;BME280;20339;49.754;20.158;2023-03-23T11:09:39;96160.03;;;18.01;38.75
34065;BME280;20339;49.754;20.158;2023-03-23T11:12:19;96159.25;;;17.86;38.19
34065;BME280;20339;49.754;20.158;2023-03-23T11:15:09;96157.88;;;17.63;38.91
34065;BME280;20339;49.754;20.158;2023-03-23T11:17:59;96144.50;;;17.79;39.90
34065;BME280;20339;49.754;20.158;2023-03-23T11:20:37;96145.70;;;17.86;38.91
34065;BME280;20339;49.754;20.158;2023-03-23T11:23:21;96129.73;;;17.80;38.07
34065;BME280;20339;49.754;20.158;2023-03-23T11:26:20;96132.33;;;17.68;38.94
34065;BME280;20339;49.754;20.158;2023-03-23T11:28:58;96149.27;;;17.66;39.94
34065;BME280;20339;49.754;20.158;2023-03-23T11:31:33;96153.88;;;17.64;39.87
34065;BME280;20339;49.754;20.158;2023-03-23T11:34:15;96155.30;;;17.59;39.94
34065;BME280;20339;49.754;20.158;2023-03-23T11:36:50;96160.75;;;17.54;39.82
34065;BME280;20339;49.754;20.158;2023-03-23T11:39:29;96143.06;;;17.57;40.18
34065;BME280;20339;49.754;20.158;2023-03-23T11:42:16;96150.94;;;17.63;40.62
34065;BME280;20339;49.754;20.158;2023-03-23T11:44:50;96138.32;;;17.77;40.19
34065;BME280;20339;49.754;20.158;2023-03-23T11:47:27;96143.80;;;17.87;39.93
34065;BME280;20339;49.754;20.158;2023-03-23T11:50:07;96147.73;;;18.05;40.20
34065;BME280;20339;49.754;20.158;2023-03-23T11:52:43;96146.24;;;18.17;40.21
34065;BME280;20339;49.754;20.158;2023-03-23T11:55:19;96144.72;;;18.19;40.45
34065;BME280;20339;49.754;20.158;2023-03-23T11:57:52;96146.06;;;18.18;39.88
34065;BME280;20339;49.754;20.158;2023-03-23T12:00:24;96151.55;;;18.07;39.99
34065;BME280;20339;49.754;20.158;2023-03-23T12:03:01;96146.36;;;18.04;40.42
34065;BME280;20339;49.754;20.158;2023-03-23T12:05:43;96142.88;;;18.14;40.27
34065;BME280;20339;49.754;20.158;2023-03-23T12:08:37;96142.40;;;18.18;39.96
34065;BME280;20339;49.754;20.158;2023-03-23T12:11:18;96135.00;;;18.19;40.03
34065;BME280;20339;49.754;20.158;2023-03-23T12:13:54;96126.80;;;18.28;40.29
34065;BME280;20339;49.754;20.158;2023-03-23T12:16:41;96130.17;;;18.41;39.60
34065;BME280;20339;49.754;20.158;2023-03-23T12:19:19;96120.91;;;18.50;39.25
34065;BME280;20339;49.754;20.158;2023-03-23T12:21:58;96109.65;;;18.74;39.59
34065;BME280;20339;49.754;20.158;2023-03-23T12:24:52;96103.77;;;19.01;39.70
34065;BME280;20339;49.754;20.158;2023-03-23T12:27:32;96109.47;;;19.32;39.06
34065;BME280;20339;49.754;20.158;2023-03-23T12:30:16;96102.55;;;19.53;38.89
34065;BME280;20339;49.754;20.158;2023-03-23T12:33:17;96095.23;;;19.65;38.37
34065;BME280;20339;49.754;20.158;2023-03-23T12:35:59;96101.23;;;19.65;37.66
34065;BME280;20339;49.754;20.158;2023-03-23T12:38:54;96096.16;;;19.62;37.70
34065;BME280;20339;49.754;20.158;2023-03-23T12:41:31;96094.34;;;19.57;37.24
34065;BME280;20339;49.754;20.158;2023-03-23T12:44:08;96087.16;;;19.52;36.18
34065;BME280;20339;49.754;20.158;2023-03-23T12:49:34;96094.57;;;19.51;36.47
34065;BME280;20339;49.754;20.158;2023-03-23T12:52:14;96094.48;;;19.22;37.45
34065;BME280;20339;49.754;20.158;2023-03-23T12:54:50;96094.45;;;18.94;37.64
34065;BME280;20339;49.754;20.158;2023-03-23T12:57:28;96091.80;;;18.66;38.27
34065;BME280;20339;49.754;20.158;2023-03-23T13:00:07;96088.35;;;18.72;38.78
34065;BME280;20339;49.754;20.158;2023-03-23T13:02:46;96082.79;;;18.79;38.87
34065;BME280;20339;49.754;20.158;2023-03-23T13:05:35;96082.63;;;18.85;38.88
34065;BME280;20339;49.754;20.158;2023-03-23T13:08:14;96089.52;;;19.03;38.27
34065;BME280;20339;49.754;20.158;2023-03-23T13:10:49;96078.02;;;19.21;37.95
34065;BME280;20339;49.754;20.158;2023-03-23T13:13:23;96079.47;;;19.43;37.81
34065;BME280;20339;49.754;20.158;2023-03-23T13:16:04;96077.42;;;19.50;36.55
34065;BME280;20339;49.754;20.158;2023-03-23T13:18:44;96077.45;;;19.45;36.04
34065;BME280;20339;49.754;20.158;2023-03-23T13:21:21;96073.80;;;19.37;36.90
34065;BME280;20339;49.754;20.158;2023-03-23T13:23:59;96080.07;;;19.29;36.49
34065;BME280;20339;49.754;20.158;2023-03-23T13:26:36;96084.91;;;19.11;36.82
34065;BME280;20339;49.754;20.158;2023-03-23T13:29:12;96085.84;;;18.76;36.96
34065;BME280;20339;49.754;20.158;2023-03-23T13:31:47;96091.11;;;18.51;37.30
34065;BME280;20339;49.754;20.158;2023-03-23T13:34:21;96086.10;;;18.33;37.97
34065;BME280;20339;49.754;20.158;2023-03-23T13:36:59;96088.17;;;18.25;38.72
34065;BME280;20339;49.754;20.158;2023-03-23T13:39:37;96089.23;;;18.17;38.99
34065;BME280;20339;49.754;20.158;2023-03-23T13:42:25;96088.44;;;18.11;39.12
34065;BME280;20339;49.754;20.158;2023-03-23T13:45:20;96088.34;;;18.02;39.07
34065;BME280;20339;49.754;20.158;2023-03-23T13:48:16;96094.04;;;17.98;39.80
34065;BME280;20339;49.754;20.158;2023-03-23T13:50:53;96089.20;;;17.97;39.68
34065;BME280;20339;49.754;20.158;2023-03-23T13:53:27;96091.19;;;17.89;39.81
34065;BME280;20339;49.754;20.158;2023-03-23T13:56:17;96088.97;;;17.83;39.56
34065;BME280;20339;49.754;20.158;2023-03-23T13:58:51;96088.88;;;17.76;40.23
34065;BME280;20339;49.754;20.158;2023-03-23T14:01:37;96094.14;;;17.78;40.64
34065;BME280;20339;49.754;20.158;2023-03-23T14:04:15;96091.82;;;17.83;40.79
34065;BME280;20339;49.754;20.158;2023-03-23T14:06:53;96084.58;;;17.79;40.05